createdAt,value
2023-05-19T00:04:08.549Z,3.80
2023-05-19T00:09:14.523Z,5.10
2023-05-19T00:14:20.842Z,6.00
2023-05-19T00:19:26.769Z,4.00
2023-05-19T00:24:33.202Z,4.50
2023-05-19T00:29:38.545Z,6.40
2023-05-19T00:34:44.165Z,8.30
2023-05-19T00:39:49.745Z,6.70
2023-05-19T00:44:55.585Z,5.90
2023-05-19T00:50:01.044Z,6.20
2023-05-19T00:55:08.134Z,5.00
2023-05-19T01:00:18.273Z,4.90
2023-05-19T01:05:24.065Z,5.20
2023-05-19T01:10:29.760Z,5.90
2023-05-19T01:15:48.059Z,6.50
2023-05-19T01:21:12.758Z,7.70
2023-05-19T01:26:51.168Z,7.20
2023-05-19T01:32:00.795Z,7.00
2023-05-19T01:37:14.418Z,5.80
2023-05-19T01:42:22.729Z,7.50
2023-05-19T01:47:31.134Z,6.70
2023-05-19T01:52:37.039Z,4.70
2023-05-19T01:57:50.329Z,4.80
2023-05-19T02:03:04.528Z,5.10
2023-05-19T02:08:20.484Z,6.50
2023-05-19T02:13:30.321Z,7.60
2023-05-19T02:18:37.114Z,6.80
2023-05-19T02:23:42.713Z,6.70
2023-05-19T02:28:48.270Z,6.70
2023-05-19T02:33:53.756Z,6.20
2023-05-19T02:39:01.187Z,7.40
2023-05-19T02:44:07.734Z,5.50
2023-05-19T02:49:13.974Z,5.90
2023-05-19T02:54:19.558Z,4.60
2023-05-19T02:59:25.733Z,5.70
2023-05-19T03:04:31.736Z,5.70
2023-05-19T03:09:37.422Z,7.60
2023-05-19T03:14:43.784Z,5.70
2023-05-19T03:19:49.290Z,8.20
2023-05-19T03:24:55.329Z,7.10
2023-05-19T03:30:00.998Z,12.70
2023-05-19T03:35:07.360Z,7.20
2023-05-19T03:40:14.678Z,5.90
2023-05-19T03:45:21.426Z,7.30
2023-05-19T03:50:29.096Z,7.50
2023-05-19T03:55:44.551Z,7.10
2023-05-19T04:00:51.593Z,4.70
2023-05-19T04:05:57.040Z,5.60
2023-05-19T04:11:02.759Z,6.60
2023-05-19T04:16:09.105Z,7.70
2023-05-19T04:21:14.892Z,6.30
2023-05-19T04:26:22.597Z,6.40
2023-05-19T04:31:30.032Z,4.30
2023-05-19T04:36:37.911Z,4.20
2023-05-19T04:41:44.877Z,7.60
2023-05-19T04:46:54.477Z,6.60
2023-05-19T04:52:01.620Z,5.00
2023-05-19T04:57:08.071Z,3.30
2023-05-19T05:02:16.411Z,4.10
2023-05-19T05:07:22.733Z,4.50
2023-05-19T05:12:30.390Z,3.40
2023-05-19T05:17:37.757Z,6.40
2023-05-19T05:22:45.066Z,3.80
2023-05-19T05:27:51.343Z,3.80
2023-05-19T05:32:57.566Z,7.10
2023-05-19T05:38:11.348Z,4.40
2023-05-19T05:43:17.047Z,3.20
2023-05-19T05:48:30.026Z,5.50
2023-05-19T05:53:42.931Z,4.60
2023-05-19T05:58:49.725Z,4.30
2023-05-19T06:03:55.522Z,5.40
2023-05-19T06:09:02.250Z,4.30
2023-05-19T06:14:07.832Z,2.70
2023-05-19T06:19:29.288Z,4.30
2023-05-19T06:24:35.719Z,3.60
2023-05-19T06:29:48.353Z,6.50
2023-05-19T06:34:54.788Z,5.10
2023-05-19T06:40:00.443Z,4.00
2023-05-19T06:45:07.671Z,4.60
2023-05-19T06:50:13.301Z,5.20
2023-05-19T06:55:21.884Z,3.70
2023-05-19T07:00:34.952Z,2.30
2023-05-19T07:05:41.399Z,4.50
2023-05-19T07:10:47.022Z,5.20
2023-05-19T07:16:04.370Z,4.50
2023-05-19T07:21:10.098Z,4.70
2023-05-19T07:26:16.953Z,3.00
2023-05-19T07:31:22.629Z,4.10
2023-05-19T07:36:28.201Z,4.30
2023-05-19T07:41:34.478Z,9.50
2023-05-19T07:46:42.044Z,4.50
2023-05-19T07:51:47.622Z,8.30
2023-05-19T07:56:53.002Z,4.80
2023-05-19T08:01:58.668Z,7.40
2023-05-19T08:07:04.278Z,7.20
2023-05-19T08:12:09.782Z,9.70
2023-05-19T08:17:15.504Z,9.50
2023-05-19T08:22:20.798Z,8.40
2023-05-19T08:27:26.253Z,8.70
2023-05-19T08:32:32.048Z,12.20
2023-05-19T08:37:38.720Z,13.30
2023-05-19T08:42:44.840Z,9.70
2023-05-19T08:47:51.382Z,10.10
2023-05-19T08:53:02.487Z,10.40
2023-05-19T09:03:22.864Z,13.30
2023-05-19T09:08:29.214Z,12.80
2023-05-19T09:13:35.114Z,14.10
2023-05-19T09:18:53.929Z,11.10
2023-05-19T09:24:03.924Z,11.90
2023-05-19T09:29:17.244Z,12.60
2023-05-19T09:34:25.133Z,14.60
2023-05-19T09:39:32.892Z,16.90
2023-05-19T09:44:38.429Z,16.50
2023-05-19T09:49:47.773Z,17.00
2023-05-19T09:54:56.131Z,13.60
2023-05-19T10:00:02.539Z,11.40
2023-05-19T10:05:13.691Z,12.20
2023-05-19T10:10:20.911Z,16.70
2023-05-19T10:15:26.618Z,16.00
2023-05-19T10:20:34.629Z,12.40
2023-05-19T10:25:42.336Z,9.40
2023-05-19T10:30:55.898Z,12.10
2023-05-19T10:42:17.652Z,12.30
2023-05-19T10:47:31.996Z,12.70
2023-05-19T10:52:55.748Z,11.60
2023-05-19T10:58:01.462Z,7.90
2023-05-19T11:03:19.784Z,11.80
2023-05-19T11:08:34.876Z,9.30
2023-05-19T11:13:47.104Z,9.20
2023-05-19T11:18:55.818Z,6.90
2023-05-19T11:24:01.354Z,8.10
2023-05-19T11:29:07.795Z,7.30
2023-05-19T11:34:13.915Z,6.60
2023-05-19T11:39:19.675Z,7.00
2023-05-19T11:44:25.303Z,7.80
2023-05-19T11:49:31.367Z,7.60
2023-05-19T11:54:37.491Z,8.00
2023-05-19T11:59:49.751Z,10.80
2023-05-19T12:04:55.553Z,10.10
2023-05-19T12:10:01.282Z,9.70
2023-05-19T12:15:08.776Z,8.70
2023-05-19T12:20:15.123Z,11.80
2023-05-19T12:25:22.061Z,7.90
2023-05-19T12:30:29.920Z,9.60
2023-05-19T12:35:38.830Z,9.80
2023-05-19T12:40:45.070Z,8.30
2023-05-19T12:45:50.648Z,7.40
2023-05-19T12:50:56.643Z,11.00
2023-05-19T12:56:10.109Z,8.10
2023-05-19T13:01:20.562Z,14.50
2023-05-19T13:06:59.335Z,17.50
2023-05-19T13:12:08.829Z,9.30
2023-05-19T13:17:17.321Z,11.10
2023-05-19T13:22:26.159Z,8.70
2023-05-19T13:27:36.740Z,10.10
2023-05-19T13:32:51.230Z,10.10
2023-05-19T13:38:06.555Z,11.00
2023-05-19T13:43:13.139Z,7.70
2023-05-19T13:48:20.121Z,10.90
2023-05-19T13:53:31.317Z,9.90
2023-05-19T13:58:46.740Z,8.50
2023-05-19T14:03:55.132Z,7.40
2023-05-19T14:09:03.914Z,11.00
2023-05-19T14:14:11.767Z,8.60
2023-05-19T14:19:18.038Z,9.30
2023-05-19T14:24:23.801Z,8.00
2023-05-19T14:29:31.074Z,8.10
2023-05-19T14:34:36.522Z,12.40
2023-05-19T14:39:42.271Z,10.30
2023-05-19T14:44:48.020Z,8.00
2023-05-19T14:49:53.593Z,15.50
2023-05-19T14:54:59.173Z,14.60
2023-05-19T15:00:05.654Z,9.10
2023-05-19T15:05:11.837Z,10.40
2023-05-19T15:10:17.912Z,8.90
2023-05-19T15:15:23.598Z,15.40
2023-05-19T15:20:29.588Z,12.80
2023-05-19T15:25:35.290Z,11.50
2023-05-19T15:30:42.959Z,9.90
2023-05-19T15:35:51.753Z,11.50
2023-05-19T15:40:58.863Z,11.40
2023-05-19T15:46:05.124Z,10.60
2023-05-19T15:51:11.642Z,11.20
2023-05-19T15:56:17.427Z,12.20
2023-05-19T16:01:22.971Z,10.80
2023-05-19T16:06:28.423Z,12.50
2023-05-19T16:11:34.152Z,9.30
2023-05-19T16:16:39.834Z,10.80
2023-05-19T16:21:45.830Z,17.60
2023-05-19T16:26:53.630Z,11.20
2023-05-19T16:31:59.405Z,11.80
2023-05-19T16:37:05.155Z,17.60
2023-05-19T16:42:10.670Z,10.70
2023-05-19T16:47:18.919Z,10.70
2023-05-19T16:52:24.621Z,13.20
2023-05-19T16:57:30.095Z,12.00
2023-05-19T17:02:36.104Z,17.40
2023-05-19T17:07:41.579Z,13.70
2023-05-19T17:12:47.204Z,15.20
2023-05-19T17:17:52.819Z,14.50
2023-05-19T17:23:05.551Z,14.60
2023-05-19T17:28:44.189Z,13.60
2023-05-19T17:34:03.669Z,13.60
2023-05-19T17:39:28.596Z,11.60
2023-05-19T17:44:39.076Z,14.10
2023-05-19T17:49:56.140Z,15.80
2023-05-19T17:55:30.353Z,15.30
2023-05-19T18:00:47.763Z,13.80
2023-05-19T18:06:03.398Z,12.40
2023-05-19T18:11:27.560Z,10.10
2023-05-19T18:16:47.685Z,19.30
2023-05-19T18:21:55.432Z,12.10
2023-05-19T18:27:00.876Z,12.70
2023-05-19T18:32:07.775Z,11.10
2023-05-19T18:37:13.739Z,11.30
2023-05-19T18:42:19.462Z,12.00
2023-05-19T18:47:24.920Z,13.10
2023-05-19T18:52:31.381Z,11.90
2023-05-19T18:57:36.978Z,11.70
2023-05-19T19:02:42.487Z,11.60
2023-05-19T19:07:49.402Z,10.70
2023-05-19T19:12:55.088Z,15.60
2023-05-19T19:18:00.952Z,15.10
2023-05-19T19:23:07.552Z,16.30
2023-05-19T19:28:13.064Z,15.30
2023-05-19T19:33:18.892Z,17.70
2023-05-19T19:38:24.716Z,14.60
2023-05-19T19:43:30.765Z,13.80
2023-05-19T19:48:36.442Z,17.70
2023-05-19T19:53:42.198Z,14.30
2023-05-19T19:58:47.709Z,17.90
2023-05-19T20:03:56.930Z,17.90
2023-05-19T20:09:09.250Z,14.60
2023-05-19T20:14:18.927Z,15.90
2023-05-19T20:19:26.833Z,23.20
2023-05-19T20:24:32.350Z,21.80
2023-05-19T20:29:37.953Z,17.80
2023-05-19T20:34:43.613Z,14.20
2023-05-19T20:39:49.565Z,19.20
2023-05-19T20:44:55.706Z,18.00
2023-05-19T20:50:01.101Z,24.00
2023-05-19T20:55:07.347Z,26.90
2023-05-19T21:00:14.289Z,20.10
2023-05-19T21:05:20.663Z,19.60
2023-05-19T21:10:26.512Z,22.20
2023-05-19T21:15:31.782Z,20.10
2023-05-19T21:20:37.655Z,19.60
2023-05-19T21:25:45.309Z,17.90
2023-05-19T21:30:51.402Z,18.00
2023-05-19T21:35:58.347Z,14.70
2023-05-19T21:41:03.927Z,14.90
2023-05-19T21:46:09.965Z,19.10
2023-05-19T21:51:16.301Z,17.70
2023-05-19T21:56:22.750Z,15.50
2023-05-19T22:01:28.424Z,18.30
2023-05-19T22:06:34.284Z,17.60
2023-05-19T22:11:40.448Z,19.20
2023-05-19T22:16:47.718Z,19.30
2023-05-19T22:22:02.027Z,22.70
2023-05-19T22:27:17.739Z,21.00
2023-05-19T22:32:23.579Z,20.90
2023-05-19T22:37:29.897Z,18.70
2023-05-19T22:42:35.670Z,20.50
2023-05-19T22:47:41.231Z,20.40
2023-05-19T22:52:46.903Z,15.70
2023-05-19T22:57:52.252Z,14.90
2023-05-19T23:02:58.733Z,16.80
2023-05-19T23:08:04.249Z,14.60
2023-05-19T23:13:10.380Z,19.20
2023-05-19T23:18:15.977Z,15.30
2023-05-19T23:23:21.593Z,17.60
2023-05-19T23:28:26.911Z,16.60
2023-05-19T23:33:32.385Z,11.70
2023-05-19T23:38:37.887Z,14.30
2023-05-19T23:43:43.349Z,11.30
2023-05-19T23:48:49.040Z,14.70
2023-05-19T23:53:54.741Z,10.70
2023-05-19T23:59:00.949Z,12.70
